-1°C Temp
-6°C Dewpoint
69% Humidity
Temperature
3 KM/H
2 MPH
2 KTS
10°
Due North

Wind Speed
Clear
Conditions
Pressure 1043.92 (hPa) - 30.83 (in)
Visibility 6.2 (mi) - 10.0 (km)

Current Conditions
LSZA
Location Lugano 50 (km)
Metar :LSZA 202050Z AUTO 01002KT CAVOK M01/M06 Q1044
Mon 20th January 21:50 pm

Airport
  Metar Aviation API Data Provided by https://www.checkwx.com/ PHP scripts by weather34.com ©2020